createdAt,value
2019-05-19T00:05:00.930Z,9.43
2019-05-19T00:10:07.615Z,7.87
2019-05-19T00:15:11.094Z,7.67
2019-05-19T00:20:14.692Z,9.70
2019-05-19T00:25:18.239Z,8.05
2019-05-19T00:30:21.718Z,9.13
2019-05-19T00:35:25.299Z,8.45
2019-05-19T00:40:28.872Z,8.93
2019-05-19T00:45:32.358Z,7.70
2019-05-19T00:50:35.801Z,8.08
2019-05-19T00:55:39.252Z,7.50
2019-05-19T01:00:42.732Z,8.65
2019-05-19T01:05:47.997Z,7.83
2019-05-19T01:10:51.498Z,8.53
2019-05-19T01:15:54.987Z,9.40
2019-05-19T01:20:58.415Z,8.13
2019-05-19T01:26:01.849Z,8.75
2019-05-19T01:31:05.290Z,12.30
2019-05-19T01:36:08.966Z,8.33
2019-05-19T01:41:12.481Z,11.20
2019-05-19T01:46:15.998Z,9.03
2019-05-19T01:51:19.411Z,7.72
2019-05-19T01:56:22.895Z,8.93
2019-05-19T02:01:27.413Z,8.53
2019-05-19T02:06:30.939Z,9.13
2019-05-19T02:11:34.501Z,7.37
2019-05-19T02:16:37.901Z,7.28
2019-05-19T02:21:41.386Z,7.78
2019-05-19T02:26:44.902Z,9.23
2019-05-19T02:31:48.326Z,8.08
2019-05-19T02:36:51.827Z,9.58
2019-05-19T02:41:55.343Z,7.72
2019-05-19T02:46:58.872Z,7.70
2019-05-19T02:52:03.386Z,8.33
2019-05-19T02:57:06.906Z,9.30
2019-05-19T03:02:12.088Z,7.50
2019-05-19T03:07:15.577Z,7.87
2019-05-19T03:12:19.040Z,6.72
2019-05-19T03:17:22.628Z,7.30
2019-05-19T03:22:26.068Z,8.10
2019-05-19T03:27:29.516Z,7.35
2019-05-19T03:32:34.627Z,6.92
2019-05-19T03:37:38.088Z,8.05
2019-05-19T03:42:41.618Z,9.68
2019-05-19T03:47:45.105Z,6.92
2019-05-19T03:52:48.547Z,6.87
2019-05-19T03:57:52.029Z,7.08
2019-05-19T04:02:55.534Z,7.62
2019-05-19T04:07:58.998Z,7.92
2019-05-19T04:13:02.603Z,8.63
2019-05-19T04:18:06.080Z,6.65
2019-05-19T04:23:09.601Z,11.15
2019-05-19T04:28:13.114Z,8.55
2019-05-19T04:33:16.556Z,6.95
2019-05-19T04:38:20.070Z,7.80
2019-05-19T04:43:23.638Z,6.83
2019-05-19T04:48:29.106Z,7.65
2019-05-19T04:53:32.635Z,7.95
2019-05-19T04:58:36.084Z,6.22
2019-05-19T05:03:39.557Z,6.80
2019-05-19T05:08:43.100Z,6.65
2019-05-19T05:13:46.503Z,6.58
2019-05-19T05:18:50.029Z,6.00
2019-05-19T05:23:53.448Z,6.62
2019-05-19T05:28:56.908Z,6.65
2019-05-19T05:34:00.441Z,7.47
2019-05-19T05:39:05.241Z,6.50
2019-05-19T05:44:08.822Z,6.35
2019-05-19T05:49:12.311Z,6.50
2019-05-19T05:54:15.850Z,5.87
2019-05-19T05:59:19.343Z,7.72
2019-05-19T06:04:22.803Z,8.05
2019-05-19T06:09:26.289Z,5.53
2019-05-19T06:14:29.815Z,7.00
2019-05-19T06:19:33.287Z,5.72
2019-05-19T06:24:36.805Z,8.15
2019-05-19T06:29:40.243Z,7.85
2019-05-19T06:34:43.666Z,7.30
2019-05-19T06:39:47.144Z,6.97
2019-05-19T06:44:50.603Z,9.73
2019-05-19T06:49:54.894Z,9.35
2019-05-19T06:54:58.319Z,10.38
2019-05-19T07:00:01.818Z,10.55
2019-05-19T07:05:06.983Z,11.78
2019-05-19T07:10:10.488Z,11.70
2019-05-19T07:15:14.021Z,9.10
2019-05-19T07:20:17.504Z,8.40
2019-05-19T07:25:21.023Z,10.15
2019-05-19T07:30:24.541Z,17.42
2019-05-19T07:35:27.963Z,15.53
2019-05-19T07:40:31.411Z,16.35
2019-05-19T07:45:34.841Z,10.63
2019-05-19T07:50:38.345Z,13.43
2019-05-19T07:55:41.922Z,9.93
2019-05-19T08:00:45.351Z,11.30
2019-05-19T08:05:48.826Z,12.30
2019-05-19T08:10:52.343Z,11.93
2019-05-19T08:15:55.768Z,10.90
2019-05-19T08:20:59.303Z,10.63
2019-05-19T08:26:02.769Z,12.90
2019-05-19T08:31:06.217Z,15.80
2019-05-19T08:36:09.738Z,14.93
2019-05-19T08:41:13.214Z,15.68
2019-05-19T08:46:16.761Z,14.43
2019-05-19T08:51:20.244Z,15.25
2019-05-19T08:56:23.674Z,17.02
2019-05-19T09:01:27.210Z,16.95
2019-05-19T09:06:30.620Z,14.53
2019-05-19T09:11:34.092Z,18.87
2019-05-19T09:16:37.614Z,17.82
2019-05-19T09:21:41.080Z,15.18
2019-05-19T09:26:44.629Z,14.65
2019-05-19T09:31:48.154Z,17.98
2019-05-19T09:36:51.621Z,16.45
2019-05-19T09:41:55.088Z,14.43
2019-05-19T09:46:58.559Z,13.78
2019-05-19T09:52:02.722Z,13.22
2019-05-19T09:57:06.273Z,15.13
2019-05-19T10:02:09.694Z,17.60
2019-05-19T10:07:13.364Z,17.73
2019-05-19T10:12:16.881Z,42.62
2019-05-19T10:17:20.395Z,58.00
2019-05-19T10:22:23.939Z,69.25
2019-05-19T10:27:27.375Z,64.40
2019-05-19T10:32:30.935Z,66.82
2019-05-19T10:37:34.489Z,55.55
2019-05-19T10:42:37.965Z,54.77
2019-05-19T10:47:41.611Z,47.33
2019-05-19T10:52:45.127Z,34.45
2019-05-19T10:57:48.618Z,31.50
2019-05-19T11:02:52.229Z,26.02
2019-05-19T11:07:58.531Z,17.80
2019-05-19T11:13:02.117Z,16.60
2019-05-19T11:18:06.620Z,16.85
2019-05-19T11:23:10.813Z,16.27
2019-05-19T11:28:14.943Z,14.20
2019-05-19T11:33:18.746Z,14.95
2019-05-19T11:38:22.649Z,15.48
2019-05-19T11:43:26.486Z,13.35
2019-05-19T11:48:30.037Z,17.00
2019-05-19T11:53:33.620Z,16.00
2019-05-19T11:58:37.230Z,88.62
2019-05-19T12:03:40.785Z,345.27
2019-05-19T12:08:44.284Z,293.02
2019-05-19T12:13:47.796Z,205.62
2019-05-19T12:18:51.312Z,130.63
2019-05-19T12:23:54.798Z,75.15
2019-05-19T12:28:58.326Z,49.10
2019-05-19T12:34:01.855Z,36.95
2019-05-19T12:39:06.569Z,31.68
2019-05-19T12:44:10.029Z,31.82
2019-05-19T12:49:13.831Z,19.92
2019-05-19T12:54:17.665Z,11.95
2019-05-19T12:59:21.067Z,12.37
2019-05-19T13:04:24.854Z,12.93
2019-05-19T13:09:28.568Z,10.55
2019-05-19T13:14:32.393Z,13.03
2019-05-19T13:19:36.227Z,11.00
2019-05-19T13:24:39.657Z,12.78
2019-05-19T13:29:43.094Z,9.50
2019-05-19T13:34:46.545Z,12.05
2019-05-19T13:39:50.296Z,10.03
2019-05-19T13:44:53.917Z,9.65
2019-05-19T13:49:57.429Z,10.05
2019-05-19T13:55:02.843Z,9.80
2019-05-19T14:00:07.128Z,12.50
2019-05-19T14:05:10.867Z,9.53
2019-05-19T14:10:15.287Z,11.53
2019-05-19T14:15:20.720Z,8.10
2019-05-19T14:20:24.862Z,7.45
2019-05-19T14:25:28.480Z,10.70
2019-05-19T14:30:31.994Z,12.70
2019-05-19T14:35:35.475Z,8.65
2019-05-19T14:40:39.228Z,7.28
2019-05-19T14:45:44.011Z,12.55
2019-05-19T14:50:47.588Z,9.63
2019-05-19T14:55:51.513Z,8.35
2019-05-19T15:00:55.154Z,7.03
2019-05-19T15:05:58.919Z,10.10
2019-05-19T15:11:02.436Z,11.63
2019-05-19T15:16:06.357Z,6.80
2019-05-19T15:21:09.834Z,7.70
2019-05-19T15:26:13.618Z,5.95
2019-05-19T15:31:17.392Z,6.45
2019-05-19T15:36:21.448Z,5.83
2019-05-19T15:41:25.563Z,6.85
2019-05-19T15:46:29.027Z,6.80
2019-05-19T15:51:37.434Z,5.62
2019-05-19T15:56:37.786Z,6.72
2019-05-19T16:01:41.462Z,5.53
2019-05-19T16:06:44.983Z,5.67
2019-05-19T16:11:48.425Z,5.58
2019-05-19T16:16:51.850Z,6.78
2019-05-19T16:21:55.422Z,11.65
2019-05-19T16:26:58.884Z,6.42
2019-05-19T16:32:02.475Z,7.35
2019-05-19T16:37:05.914Z,5.12
2019-05-19T16:42:10.301Z,8.00
2019-05-19T16:47:13.835Z,7.00
2019-05-19T16:52:17.383Z,6.33
2019-05-19T16:57:21.140Z,7.80
2019-05-19T17:02:24.676Z,5.42
2019-05-19T17:07:28.078Z,7.65
2019-05-19T17:12:31.522Z,7.80
2019-05-19T17:17:35.101Z,6.08
2019-05-19T17:22:38.539Z,5.67
2019-05-19T17:27:42.051Z,11.57
2019-05-19T17:32:45.480Z,6.42
2019-05-19T17:37:48.933Z,7.30
2019-05-19T17:42:52.491Z,28.42
2019-05-19T17:48:09.097Z,6.35
2019-05-19T17:53:03.114Z,10.95
2019-05-19T17:58:06.385Z,8.60
2019-05-19T18:03:10.107Z,8.40
2019-05-19T18:08:13.553Z,8.58
2019-05-19T18:13:18.180Z,7.80
2019-05-19T18:18:21.660Z,8.38
2019-05-19T18:23:25.183Z,6.37
2019-05-19T18:28:29.512Z,9.30
2019-05-19T18:33:33.264Z,9.15
2019-05-19T18:38:36.750Z,9.20
2019-05-19T18:43:40.478Z,7.90
2019-05-19T18:48:44.214Z,8.63
2019-05-19T18:53:47.695Z,6.58
2019-05-19T18:58:51.190Z,7.80
2019-05-19T19:03:54.830Z,7.28
2019-05-19T19:08:58.786Z,8.95
2019-05-19T19:14:02.606Z,6.67
2019-05-19T19:19:06.107Z,6.37
2019-05-19T19:24:09.769Z,9.83
2019-05-19T19:29:13.476Z,11.12
2019-05-19T19:34:17.037Z,7.67
2019-05-19T19:39:20.565Z,11.30
2019-05-19T19:44:24.200Z,9.33
2019-05-19T19:49:27.683Z,7.28
2019-05-19T19:54:31.228Z,7.85
2019-05-19T19:59:34.713Z,7.78
2019-05-19T20:04:38.357Z,9.70
2019-05-19T20:09:43.315Z,6.97
2019-05-19T20:14:46.887Z,8.25
2019-05-19T20:19:50.338Z,7.47
2019-05-19T20:24:54.837Z,7.20
2019-05-19T20:29:58.250Z,8.25
2019-05-19T20:35:01.799Z,7.97
2019-05-19T20:40:07.708Z,7.65
2019-05-19T20:45:11.130Z,8.25
2019-05-19T20:50:14.665Z,7.05
2019-05-19T20:55:18.087Z,6.65
2019-05-19T21:00:21.823Z,11.08
2019-05-19T21:05:25.339Z,7.42
2019-05-19T21:10:28.818Z,7.80
2019-05-19T21:15:32.370Z,6.95
2019-05-19T21:20:35.857Z,7.47
2019-05-19T21:25:39.359Z,7.22
2019-05-19T21:30:42.836Z,7.00
2019-05-19T21:35:46.295Z,7.80
2019-05-19T21:40:49.800Z,7.47
2019-05-19T21:45:53.321Z,8.63
2019-05-19T21:50:56.771Z,7.37
2019-05-19T21:56:00.348Z,8.30
2019-05-19T22:01:03.891Z,7.15
2019-05-19T22:06:07.404Z,7.85
2019-05-19T22:11:10.893Z,8.03
2019-05-19T22:16:14.421Z,8.43
2019-05-19T22:21:17.865Z,7.60
2019-05-19T22:26:21.440Z,7.62
2019-05-19T22:31:36.267Z,7.17
2019-05-19T22:36:30.103Z,7.37
2019-05-19T22:41:33.614Z,8.58
2019-05-19T22:46:37.075Z,7.37
2019-05-19T22:51:40.568Z,7.42
2019-05-19T22:56:44.015Z,7.47
2019-05-19T23:01:51.664Z,7.37
2019-05-19T23:06:52.521Z,6.28
2019-05-19T23:11:56.974Z,7.17
2019-05-19T23:17:00.468Z,6.80
2019-05-19T23:22:04.009Z,7.15
2019-05-19T23:27:07.473Z,7.45
2019-05-19T23:32:11.062Z,6.85
2019-05-19T23:37:14.454Z,6.97
2019-05-19T23:42:17.920Z,8.98
2019-05-19T23:47:21.377Z,6.55
2019-05-19T23:52:24.851Z,6.75
2019-05-19T23:57:28.400Z,6.85
